Time;durP1;ratioP1;P1;durP2;ratioP2;P2;SDS_P1;SDS_P2;PMS_P1;PMS_P2;Temp;Humidity;BMP_temperature;BMP_pressure;BME280_temperature;BME280_humidity;BME280_pressure;Samples;Min_cycle;Max_cycle;Signal;HPM_P1;HPM_P2
2021/12/09 00:00:01;;;;;;;5.93;2.95;;;8.00;98.40;;;;;;5041000;28;20363;-49
2021/12/09 00:02:29;;;;;;;3.25;2.25;;;8.00;98.50;;;;;;5036946;28;20329;-49
2021/12/09 00:04:56;;;;;;;4.63;3.05;;;8.00;98.60;;;;;;5040511;28;20056;-49
2021/12/09 00:07:23;;;;;;;3.63;2.05;;;8.00;98.60;;;;;;5028800;28;20037;-49
2021/12/09 00:09:49;;;;;;;3.55;2.40;;;8.00;98.60;;;;;;5039703;28;20056;-49
2021/12/09 00:12:15;;;;;;;3.22;2.17;;;8.00;98.50;;;;;;5042450;28;20391;-49
2021/12/09 00:14:41;;;;;;;3.83;2.42;;;8.00;98.60;;;;;;5040795;28;20030;-49
2021/12/09 00:17:08;;;;;;;3.17;2.47;;;8.00;98.50;;;;;;5036870;28;20034;-49
2021/12/09 00:19:35;;;;;;;4.60;2.90;;;8.00;98.50;;;;;;5041071;28;20027;-48
2021/12/09 00:22:02;;;;;;;6.38;2.70;;;8.00;98.50;;;;;;5042351;28;20025;-48
2021/12/09 00:24:28;;;;;;;4.75;2.92;;;8.00;98.40;;;;;;5039536;28;20147;-48
2021/12/09 00:26:54;;;;;;;7.13;3.17;;;8.00;98.40;;;;;;5037781;28;20120;-49
2021/12/09 00:29:19;;;;;;;3.33;2.35;;;8.00;98.50;;;;;;5037153;28;20036;-49
2021/12/09 00:31:47;;;;;;;4.63;2.15;;;8.00;98.60;;;;;;5033414;28;20029;-48
2021/12/09 00:34:14;;;;;;;4.80;2.75;;;8.00;98.50;;;;;;5041249;28;20021;-48
2021/12/09 00:36:55;;;;;;;4.68;2.85;;;8.00;98.50;;;;;;5041032;28;20037;-49
2021/12/09 00:39:21;;;;;;;5.18;2.78;;;8.00;98.50;;;;;;5037031;28;20025;-49
2021/12/09 00:41:47;;;;;;;5.25;2.85;;;8.00;98.50;;;;;;5040954;28;20462;-48
2021/12/09 00:44:13;;;;;;;3.22;2.10;;;8.00;98.40;;;;;;5040208;28;20079;-49
2021/12/09 00:46:38;;;;;;;4.32;2.60;;;8.00;98.50;;;;;;5034440;28;20087;-49
2021/12/09 00:49:05;;;;;;;2.75;2.20;;;8.00;98.60;;;;;;5036798;28;20029;-48
2021/12/09 00:51:30;;;;;;;5.10;2.60;;;8.00;98.40;;;;;;5039725;28;20386;-49
2021/12/09 00:53:57;;;;;;;3.75;2.47;;;8.00;98.50;;;;;;5042671;28;20032;-49
2021/12/09 00:56:22;;;;;;;4.05;2.33;;;8.00;98.50;;;;;;5038742;28;20060;-49
2021/12/09 00:58:49;;;;;;;5.80;2.55;;;8.00;98.50;;;;;;5036550;28;20065;-48
2021/12/09 01:01:15;;;;;;;4.70;3.00;;;8.00;98.80;;;;;;5037613;28;20030;-48
2021/12/09 01:03:42;;;;;;;7.32;2.42;;;8.00;98.40;;;;;;5038788;28;20071;-49
2021/12/09 01:06:09;;;;;;;4.13;2.58;;;8.00;98.50;;;;;;5040679;28;20037;-49
2021/12/09 01:08:34;;;;;;;5.70;3.40;;;8.00;98.50;;;;;;5038791;28;20064;-49
2021/12/09 01:11:01;;;;;;;4.07;3.10;;;8.00;98.40;;;;;;5035816;28;20419;-48
2021/12/09 01:13:27;;;;;;;3.90;2.25;;;8.00;98.50;;;;;;5041533;28;20061;-49
2021/12/09 01:15:53;;;;;;;2.60;2.35;;;8.00;98.40;;;;;;5039248;28;20064;-48
2021/12/09 01:18:19;;;;;;;4.53;2.95;;;8.00;98.50;;;;;;5032963;28;20072;-49
2021/12/09 01:20:45;;;;;;;8.10;2.53;;;8.00;98.40;;;;;;5036272;28;20033;-49
2021/12/09 01:23:11;;;;;;;2.35;1.75;;;8.00;98.50;;;;;;5040382;28;20021;-49
2021/12/09 01:25:37;;;;;;;3.90;2.20;;;8.00;98.40;;;;;;5040443;28;20524;-49
2021/12/09 01:28:05;;;;;;;3.53;1.80;;;8.00;98.50;;;;;;5040517;28;20025;-49
2021/12/09 01:30:31;;;;;;;3.38;2.10;;;8.00;98.50;;;;;;5037486;28;20059;-49
2021/12/09 01:32:58;;;;;;;4.78;2.80;;;8.00;98.40;;;;;;5041247;28;20052;-49
2021/12/09 01:35:33;;;;;;;3.28;2.40;;;8.00;98.50;;;;;;5044527;28;20079;-49
2021/12/09 01:38:02;;;;;;;6.47;3.00;;;8.00;98.50;;;;;;5045958;28;20029;-49
2021/12/09 01:40:29;;;;;;;2.70;2.30;;;8.00;98.40;;;;;;5038113;28;20021;-49
2021/12/09 01:42:56;;;;;;;3.05;2.25;;;8.00;98.40;;;;;;5039598;28;20095;-48
2021/12/09 01:45:22;;;;;;;3.20;2.58;;;8.00;98.50;;;;;;5043960;28;20025;-50
2021/12/09 01:47:47;;;;;;;3.17;1.75;;;8.00;98.50;;;;;;5037562;28;20030;-49
2021/12/09 01:50:14;;;;;;;2.47;2.05;;;8.00;98.50;;;;;;5044795;28;20025;-49
2021/12/09 01:52:41;;;;;;;4.55;2.20;;;8.00;98.50;;;;;;5040943;28;20418;-49
2021/12/09 01:55:08;;;;;;;1.75;1.65;;;8.00;98.40;;;;;;5041286;28;20028;-49
2021/12/09 01:57:34;;;;;;;3.53;2.47;;;8.00;98.50;;;;;;5039407;28;20033;-49
2021/12/09 02:00:00;;;;;;;3.05;1.98;;;8.00;98.50;;;;;;5044732;28;20029;-49
2021/12/09 02:02:26;;;;;;;5.03;2.15;;;8.00;98.60;;;;;;5036041;28;20029;-48
2021/12/09 02:04:52;;;;;;;4.68;2.50;;;8.00;98.50;;;;;;5039187;28;20431;-49
2021/12/09 02:07:17;;;;;;;3.47;2.10;;;8.00;98.80;;;;;;5043592;28;20068;-48
2021/12/09 02:09:43;;;;;;;1.90;1.75;;;8.00;98.60;;;;;;5042623;28;20443;-49
2021/12/09 02:12:11;;;;;;;5.28;2.00;;;8.00;98.40;;;;;;5044645;28;20090;-49
2021/12/09 02:14:41;;;;;;;4.68;2.30;;;8.00;98.50;;;;;;5037254;28;20455;-48
2021/12/09 02:17:07;;;;;;;;;;;8.00;98.40;;;;;;5038900;28;20037;-49
2021/12/09 02:19:33;;;;;;;4.97;2.30;;;8.00;98.40;;;;;;5043663;28;19905;-48
2021/12/09 02:21:59;;;;;;;3.58;1.80;;;8.00;98.50;;;;;;5043181;28;20032;-49
2021/12/09 02:24:25;;;;;;;2.50;1.67;;;8.00;98.50;;;;;;5039616;28;20029;-49
2021/12/09 02:26:51;;;;;;;5.63;1.75;;;8.00;98.40;;;;;;5043865;28;20055;-49
2021/12/09 02:29:17;;;;;;;2.97;2.05;;;8.00;98.40;;;;;;5041712;28;20022;-49
2021/12/09 02:31:43;;;;;;;2.25;1.70;;;8.00;98.50;;;;;;5038178;28;20518;-49
2021/12/09 02:34:10;;;;;;;3.78;2.28;;;8.00;98.40;;;;;;5037041;28;20151;-49
2021/12/09 02:36:39;;;;;;;2.33;1.80;;;8.00;98.40;;;;;;5038517;28;20477;-49
2021/12/09 02:39:07;;;;;;;4.35;1.52;;;8.00;98.50;;;;;;5043649;28;20030;-49
2021/12/09 02:41:35;;;;;;;2.30;1.75;;;8.00;98.50;;;;;;5042107;28;20033;-49
2021/12/09 02:44:04;;;;;;;2.17;1.90;;;8.00;98.50;;;;;;5041075;28;20034;-49
2021/12/09 02:46:36;;;;;;;2.03;1.83;;;8.00;98.50;;;;;;5038421;28;20041;-49
2021/12/09 02:49:12;;;;;;;4.38;1.67;;;8.00;98.50;;;;;;5035795;28;20072;-49
2021/12/09 02:51:38;;;;;;;2.70;1.80;;;8.00;98.40;;;;;;5041404;28;20036;-49
2021/12/09 02:54:05;;;;;;;4.40;1.70;;;8.00;98.50;;;;;;5038544;28;20033;-49
2021/12/09 02:56:31;;;;;;;3.75;2.10;;;8.00;98.60;;;;;;5042605;28;20442;-49
2021/12/09 02:58:57;;;;;;;3.47;2.20;;;8.00;98.40;;;;;;5043010;28;20032;-49
2021/12/09 03:01:33;;;;;;;4.75;1.48;;;8.00;98.50;;;;;;5040800;28;20120;-49
2021/12/09 03:04:01;;;;;;;2.05;1.73;;;8.00;98.50;;;;;;5029420;28;20034;-49
2021/12/09 03:06:35;;;;;;;2.58;1.83;;;8.00;98.40;;;;;;5042814;28;20044;-48
2021/12/09 03:09:07;;;;;;;2.80;1.60;;;8.00;98.40;;;;;;5043496;28;20025;-49
2021/12/09 03:11:32;;;;;;;4.18;2.15;;;8.00;98.50;;;;;;5041227;28;20025;-49
2021/12/09 03:13:59;;;;;;;6.90;2.00;;;8.00;98.60;;;;;;5037775;28;20413;-49
2021/12/09 03:16:25;;;;;;;3.72;2.17;;;8.00;98.40;;;;;;5042118;28;20025;-49
2021/12/09 03:18:54;;;;;;;3.10;1.77;;;8.00;98.50;;;;;;5035354;28;20033;-49
2021/12/09 03:21:38;;;;;;;2.25;1.95;;;8.00;98.50;;;;;;5032947;28;20082;-49
2021/12/09 03:24:06;;;;;;;5.20;2.28;;;8.00;98.40;;;;;;5036302;28;20025;-49
2021/12/09 03:26:38;;;;;;;2.53;1.80;;;8.00;98.40;;;;;;5040980;28;20068;-48
2021/12/09 03:29:08;;;;;;;2.67;1.77;;;8.00;98.40;;;;;;5040920;28;20053;-49
2021/12/09 03:31:36;;;;;;;2.45;1.67;;;8.00;98.50;;;;;;5037279;28;20033;-49
2021/12/09 03:34:01;;;;;;;1.92;1.42;;;8.00;98.40;;;;;;5033481;28;20029;-49
2021/12/09 03:36:28;;;;;;;2.65;1.85;;;8.00;98.30;;;;;;5037031;28;20034;-49
2021/12/09 03:38:59;;;;;;;2.92;1.52;;;8.00;98.40;;;;;;5041457;28;20033;-49
2021/12/09 03:41:25;;;;;;;1.77;1.42;;;8.00;98.50;;;;;;5043973;28;20115;-49
2021/12/09 03:43:52;;;;;;;2.78;1.77;;;8.00;98.80;;;;;;5039845;28;20071;-49
2021/12/09 03:46:18;;;;;;;1.63;1.38;;;8.00;98.40;;;;;;5035765;28;20045;-49
2021/12/09 03:48:44;;;;;;;3.67;1.42;;;8.00;98.50;;;;;;5036715;28;20300;-49
2021/12/09 03:51:10;;;;;;;1.98;1.13;;;8.00;98.50;;;;;;5041025;28;20095;-49
2021/12/09 03:53:36;;;;;;;2.15;1.77;;;8.00;98.40;;;;;;5041544;28;20029;-49
2021/12/09 03:56:02;;;;;;;1.33;1.10;;;8.00;98.40;;;;;;5038329;28;20032;-48
2021/12/09 03:58:27;;;;;;;1.23;1.10;;;8.00;98.50;;;;;;5036953;28;20459;-48
2021/12/09 04:00:53;;;;;;;1.95;1.48;;;8.00;98.50;;;;;;5043491;28;20047;-49
2021/12/09 04:03:19;;;;;;;2.08;1.23;;;8.00;98.50;;;;;;5035575;28;20033;-49
2021/12/09 04:05:48;;;;;;;1.92;1.25;;;8.00;98.50;;;;;;5041776;28;20025;-49
2021/12/09 04:08:15;;;;;;;1.13;0.98;;;8.00;98.50;;;;;;5036623;28;20435;-48
2021/12/09 04:10:41;;;;;;;2.05;1.27;;;8.00;98.50;;;;;;5040963;28;20436;-49
2021/12/09 04:13:07;;;;;;;1.50;0.98;;;8.00;98.50;;;;;;5042406;28;20025;-49
2021/12/09 04:15:33;;;;;;;1.80;1.42;;;8.00;98.40;;;;;;5039591;28;20032;-49
2021/12/09 04:17:59;;;;;;;1.15;0.88;;;8.00;98.40;;;;;;5033439;28;20030;-49
2021/12/09 04:20:25;;;;;;;2.65;1.40;;;8.00;98.50;;;;;;5039213;28;20079;-49
2021/12/09 04:22:51;;;;;;;1.10;1.00;;;8.00;98.60;;;;;;5041726;28;20025;-48
2021/12/09 04:25:19;;;;;;;2.58;0.82;;;8.00;98.50;;;;;;5040822;28;20036;-49
2021/12/09 04:27:46;;;;;;;1.38;1.15;;;8.00;98.50;;;;;;5039180;28;20485;-49
2021/12/09 04:30:13;;;;;;;1.98;1.27;;;8.00;98.40;;;;;;5037944;28;20465;-49
2021/12/09 04:32:39;;;;;;;1.83;1.20;;;8.00;98.50;;;;;;5042346;28;20025;-49
2021/12/09 04:35:06;;;;;;;2.00;1.58;;;8.00;98.40;;;;;;5034222;28;20036;-49
2021/12/09 04:37:32;;;;;;;1.73;1.30;;;8.00;98.40;;;;;;5042270;28;20021;-48
2021/12/09 04:39:59;;;;;;;2.88;1.70;;;8.00;98.50;;;;;;5037091;28;20116;-49
2021/12/09 04:42:25;;;;;;;1.67;1.58;;;8.00;98.50;;;;;;5040848;28;20438;-49
2021/12/09 04:44:51;;;;;;;2.80;1.48;;;8.00;98.50;;;;;;5040210;28;20481;-49
2021/12/09 04:47:16;;;;;;;4.95;1.85;;;8.00;98.50;;;;;;5038557;28;20069;-49
2021/12/09 04:49:42;;;;;;;2.63;1.90;;;8.00;98.50;;;;;;5027877;28;20140;-49
2021/12/09 04:52:08;;;;;;;1.95;1.23;;;8.00;98.40;;;;;;5039205;28;20430;-49
2021/12/09 04:54:36;;;;;;;3.65;2.15;;;8.00;98.40;;;;;;5042342;28;20028;-49
2021/12/09 04:57:04;;;;;;;1.80;1.42;;;8.00;98.40;;;;;;5039311;28;20025;-50
2021/12/09 04:59:30;;;;;;;1.63;1.27;;;8.00;98.50;;;;;;5036601;28;20029;-49
2021/12/09 05:01:55;;;;;;;1.85;1.30;;;8.00;98.30;;;;;;5040627;28;20026;-49
2021/12/09 05:04:21;;;;;;;2.05;1.52;;;8.00;98.50;;;;;;5034245;28;20028;-49
2021/12/09 05:06:47;;;;;;;2.58;1.80;;;8.00;98.40;;;;;;5038459;28;20048;-48
2021/12/09 05:09:17;;;;;;;2.35;1.40;;;8.00;98.40;;;;;;5042206;28;20461;-49
2021/12/09 05:14:08;;;;;;;2.22;1.58;;;8.00;98.50;;;;;;5041276;28;20108;-49
2021/12/09 05:16:34;;;;;;;2.13;1.63;;;8.00;98.50;;;;;;5039426;28;20069;-48
2021/12/09 05:19:00;;;;;;;2.35;1.70;;;8.00;98.50;;;;;;5031391;28;20248;-49
2021/12/09 05:21:37;;;;;;;6.20;1.40;;;8.00;98.40;;;;;;5037191;28;20393;-48
2021/12/09 05:24:04;;;;;;;2.97;1.30;;;8.00;98.40;;;;;;5036440;28;20526;-49
2021/12/09 05:26:35;;;;;;;2.97;1.90;;;8.00;98.40;;;;;;5040160;28;20236;-48
2021/12/09 05:29:01;;;;;;;2.65;1.60;;;8.00;98.50;;;;;;5041334;28;20086;-49
2021/12/09 05:34:13;;;;;;;5.93;2.17;;;8.00;98.50;;;;;;5030416;28;20100;-49
2021/12/09 05:36:39;;;;;;;3.90;1.55;;;8.00;98.50;;;;;;5040987;28;20060;-49
2021/12/09 05:39:08;;;;;;;3.45;1.90;;;8.00;98.50;;;;;;5038126;28;20056;-49
2021/12/09 05:41:34;;;;;;;2.75;1.67;;;8.00;98.60;;;;;;5022855;28;20049;-49
2021/12/09 05:44:04;;;;;;;3.28;1.90;;;8.00;98.50;;;;;;5028530;28;20059;-49
2021/12/09 05:46:30;;;;;;;3.15;2.03;;;8.00;98.40;;;;;;5028625;28;20086;-49
2021/12/09 05:48:55;;;;;;;3.47;2.22;;;8.00;98.40;;;;;;5031639;28;20053;-49
2021/12/09 05:51:25;;;;;;;6.03;2.28;;;8.00;98.40;;;;;;5032060;28;20017;-49
2021/12/09 05:53:51;;;;;;;4.83;2.17;;;8.00;98.50;;;;;;5027942;28;20040;-49
2021/12/09 05:56:17;;;;;;;5.38;2.40;;;8.00;98.40;;;;;;5030224;28;20041;-48
2021/12/09 05:58:43;;;;;;;6.75;3.80;;;8.00;98.40;;;;;;5039429;28;20033;-49
2021/12/09 06:01:09;;;;;;;2.75;2.20;;;8.00;98.50;;;;;;5037561;28;20112;-48
2021/12/09 06:03:35;;;;;;;2.90;2.03;;;8.00;98.40;;;;;;5026983;28;20303;-49
2021/12/09 06:06:00;;;;;;;7.22;2.00;;;7.90;98.40;;;;;;5020244;28;20542;-49
2021/12/09 06:08:27;;;;;;;2.80;1.80;;;8.00;98.40;;;;;;5024689;28;20268;-49
2021/12/09 06:10:53;;;;;;;2.30;1.70;;;8.00;98.50;;;;;;5036591;28;20442;-48
2021/12/09 06:13:19;;;;;;;3.60;1.60;;;8.00;98.40;;;;;;5029842;28;20026;-48
2021/12/09 06:15:45;;;;;;;2.03;1.45;;;8.00;98.50;;;;;;5038052;28;20079;-49
2021/12/09 06:18:11;;;;;;;2.55;2.00;;;8.00;98.60;;;;;;5030161;28;20040;-49
2021/12/09 06:20:36;;;;;;;3.17;1.83;;;8.00;98.50;;;;;;5037091;28;20375;-49
2021/12/09 06:23:02;;;;;;;9.98;2.42;;;8.00;98.60;;;;;;5043079;28;20058;-49
2021/12/09 06:25:28;;;;;;;3.20;2.20;;;8.00;98.50;;;;;;5042742;28;20067;-49
2021/12/09 06:27:55;;;;;;;3.38;1.90;;;8.00;98.60;;;;;;5042378;28;20497;-49
2021/12/09 06:30:21;;;;;;;4.78;1.98;;;8.00;98.50;;;;;;5044573;28;20477;-48
2021/12/09 06:32:47;;;;;;;2.25;1.70;;;8.00;98.50;;;;;;5038132;28;20025;-49
2021/12/09 06:35:14;;;;;;;5.93;2.05;;;8.00;98.50;;;;;;5037265;28;20033;-49
2021/12/09 06:37:44;;;;;;;6.97;2.38;;;8.00;98.50;;;;;;5042823;28;20036;-48
2021/12/09 06:40:13;;;;;;;2.70;1.63;;;8.00;98.50;;;;;;5042193;28;20451;-49
2021/12/09 06:42:40;;;;;;;2.70;1.67;;;8.00;98.60;;;;;;5044168;28;20379;-49
2021/12/09 06:45:07;;;;;;;4.63;1.60;;;8.00;98.60;;;;;;5040725;28;20102;-49
2021/12/09 06:47:32;;;;;;;6.03;2.08;;;8.00;98.60;;;;;;5042551;28;20366;-49
2021/12/09 06:49:58;;;;;;;3.83;2.08;;;8.00;98.20;;;;;;5035174;28;20208;-49
2021/12/09 06:52:24;;;;;;;2.53;1.73;;;8.00;98.40;;;;;;5042839;28;20111;-49
2021/12/09 06:54:49;;;;;;;4.47;2.08;;;8.00;98.20;;;;;;5043281;28;20026;-49
2021/12/09 06:57:15;;;;;;;5.38;2.50;;;8.00;98.20;;;;;;5041804;28;20087;-49
2021/12/09 06:59:41;;;;;;;5.15;2.80;;;8.00;98.10;;;;;;5043782;28;20406;-49
2021/12/09 07:02:07;;;;;;;8.35;3.97;;;8.00;98.10;;;;;;5041700;28;20431;-49
2021/12/09 07:04:33;;;;;;;10.40;2.88;;;8.00;98.10;;;;;;5036148;28;20034;-49
2021/12/09 07:06:58;;;;;;;6.75;2.20;;;8.00;98.20;;;;;;5040261;28;20378;-49
2021/12/09 07:09:28;;;;;;;6.95;2.13;;;8.00;98.20;;;;;;5043940;28;20029;-49
2021/12/09 07:11:54;;;;;;;3.60;2.07;;;8.00;98.20;;;;;;5043003;28;20045;-49
2021/12/09 07:14:20;;;;;;;2.22;1.63;;;8.00;98.10;;;;;;5042174;28;20104;-49
2021/12/09 07:16:45;;;;;;;4.78;1.83;;;8.00;98.20;;;;;;5038698;28;20108;-49
2021/12/09 07:19:11;;;;;;;2.67;2.08;;;8.00;98.20;;;;;;5043662;28;20017;-49
2021/12/09 07:21:37;;;;;;;12.43;2.63;;;8.00;98.20;;;;;;5036186;28;20393;-49
2021/12/09 07:24:03;;;;;;;5.18;2.10;;;8.00;98.20;;;;;;5041262;28;20408;-49
2021/12/09 07:26:30;;;;;;;7.47;2.55;;;8.00;98.20;;;;;;5042669;28;20323;-49
2021/12/09 07:28:56;;;;;;;7.28;2.55;;;8.00;98.30;;;;;;5042010;28;20045;-49
2021/12/09 07:31:24;;;;;;;6.03;2.70;;;8.00;98.30;;;;;;5042031;28;20100;-49
2021/12/09 07:33:50;;;;;;;10.93;3.33;;;8.00;98.20;;;;;;5043263;28;20362;-49
2021/12/09 07:36:16;;;;;;;6.97;2.60;;;8.00;98.30;;;;;;5030554;28;20040;-49
2021/12/09 07:38:42;;;;;;;6.47;2.10;;;8.00;98.30;;;;;;5044168;28;20021;-49
2021/12/09 07:41:08;;;;;;;5.70;2.70;;;8.00;98.30;;;;;;5040739;28;20029;-49
2021/12/09 07:43:34;;;;;;;3.78;2.30;;;8.00;98.30;;;;;;5042880;28;20354;-49
2021/12/09 07:45:59;;;;;;;3.70;2.45;;;8.00;98.30;;;;;;5040768;28;20439;-49
2021/12/09 07:48:26;;;;;;;5.57;2.38;;;8.00;98.30;;;;;;5036456;28;20041;-49
2021/12/09 07:50:51;;;;;;;7.80;3.10;;;8.00;98.30;;;;;;5038416;28;20058;-49
2021/12/09 07:53:17;;;;;;;4.63;2.53;;;8.00;98.40;;;;;;5042671;28;20061;-49
2021/12/09 07:55:44;;;;;;;6.45;3.03;;;8.00;98.30;;;;;;5040158;28;20032;-49
2021/12/09 07:58:10;;;;;;;3.63;2.28;;;8.00;98.40;;;;;;5043621;28;20025;-49
2021/12/09 08:00:36;;;;;;;3.17;2.08;;;8.00;98.40;;;;;;5040135;28;20031;-49
2021/12/09 08:03:03;;;;;;;2.83;1.80;;;8.00;98.30;;;;;;5043163;28;20021;-49
2021/12/09 08:05:30;;;;;;;3.67;2.05;;;8.00;98.40;;;;;;5036146;28;20473;-49
2021/12/09 08:07:56;;;;;;;2.65;1.60;;;8.00;98.40;;;;;;5041108;28;20116;-49
2021/12/09 08:10:22;;;;;;;2.55;1.92;;;8.00;98.40;;;;;;5042487;28;20017;-49
2021/12/09 08:12:49;;;;;;;8.50;2.22;;;8.00;98.40;;;;;;5039100;28;20040;-49
2021/12/09 08:15:16;;;;;;;6.80;2.20;;;8.00;98.40;;;;;;5042391;28;20055;-49
2021/12/09 08:20:14;;;;;;;8.10;2.45;;;8.00;98.40;;;;;;5037589;28;20037;-49
2021/12/09 08:22:42;;;;;;;10.70;1.90;;;8.00;98.40;;;;;;5042282;28;20116;-49
2021/12/09 08:25:09;;;;;;;2.88;1.77;;;8.00;98.40;;;;;;5038983;28;20025;-49
2021/12/09 08:27:36;;;;;;;5.30;2.47;;;8.00;98.50;;;;;;5043204;28;20388;-49
2021/12/09 08:30:06;;;;;;;7.05;2.42;;;8.00;98.50;;;;;;5039817;28;20446;-49
2021/12/09 08:32:34;;;;;;;5.83;2.37;;;8.00;98.50;;;;;;5041488;28;20025;-49
2021/12/09 08:35:01;;;;;;;3.47;2.35;;;8.00;98.50;;;;;;5037599;28;20340;-49
2021/12/09 08:37:27;;;;;;;5.70;2.78;;;8.00;98.50;;;;;;5037134;28;20033;-49
2021/12/09 08:39:53;;;;;;;9.52;3.13;;;8.00;98.50;;;;;;5042568;28;20029;-49
2021/12/09 08:42:19;;;;;;;4.40;2.50;;;8.00;98.50;;;;;;5035778;28;20367;-49
2021/12/09 08:44:44;;;;;;;3.90;2.17;;;8.00;98.50;;;;;;5042252;28;20427;-49
2021/12/09 08:47:10;;;;;;;4.65;2.13;;;8.00;98.50;;;;;;5039047;28;20034;-49
2021/12/09 08:49:37;;;;;;;9.77;2.72;;;8.10;98.50;;;;;;5039228;28;20439;-49
2021/12/09 08:52:03;;;;;;;5.28;1.60;;;8.00;98.50;;;;;;5033995;28;20037;-49
2021/12/09 08:54:29;;;;;;;7.63;2.25;;;8.10;98.50;;;;;;5039951;28;20025;-49
2021/12/09 08:56:54;;;;;;;5.78;1.92;;;8.10;98.50;;;;;;5041587;28;20025;-49
2021/12/09 08:59:22;;;;;;;5.45;2.40;;;8.00;98.50;;;;;;5039339;28;20033;-49
2021/12/09 09:01:48;;;;;;;1.92;1.67;;;8.10;98.60;;;;;;5035721;28;20032;-49
2021/12/09 09:04:15;;;;;;;4.82;2.28;;;8.10;98.60;;;;;;5041472;28;20021;-49
2021/12/09 09:06:56;;;;;;;6.25;1.88;;;8.10;98.60;;;;;;5032340;28;20162;-49
2021/12/09 09:09:24;;;;;;;3.95;2.00;;;8.10;98.60;;;;;;5035020;28;20470;-49
2021/12/09 09:11:50;;;;;;;4.28;1.30;;;8.10;98.60;;;;;;5041724;28;20393;-49
2021/12/09 09:14:16;;;;;;;2.65;1.45;;;8.10;98.60;;;;;;5040219;28;20045;-49
2021/12/09 09:16:41;;;;;;;8.35;1.95;;;8.10;98.60;;;;;;5039628;28;20021;-49
2021/12/09 09:19:07;;;;;;;3.53;1.35;;;8.10;98.70;;;;;;5041697;28;20022;-49
2021/12/09 09:21:34;;;;;;;3.75;1.83;;;8.10;98.70;;;;;;5037889;28;20049;-49
2021/12/09 09:24:01;;;;;;;2.60;1.55;;;8.10;98.70;;;;;;5039182;28;20104;-49
2021/12/09 09:26:27;;;;;;;6.15;2.03;;;8.10;98.60;;;;;;5034346;28;20225;-49
2021/12/09 09:28:53;;;;;;;1.45;1.20;;;8.10;98.70;;;;;;5041908;28;20047;-49
2021/12/09 09:31:20;;;;;;;2.53;1.50;;;8.10;98.70;;;;;;5039747;28;20026;-49
2021/12/09 09:33:46;;;;;;;5.82;1.65;;;8.20;98.80;;;;;;5040477;28;20037;-49
2021/12/09 09:36:12;;;;;;;4.55;1.60;;;8.20;98.90;;;;;;5032141;28;20033;-49
2021/12/09 09:38:38;;;;;;;10.65;1.45;;;8.20;98.90;;;;;;5041498;28;20686;-49
2021/12/09 09:41:12;;;;;;;3.00;1.60;;;8.20;99.20;;;;;;5038436;28;20037;-49
2021/12/09 09:43:57;;;;;;;7.03;1.73;;;8.20;99.30;;;;;;5036601;28;20172;-49
2021/12/09 09:46:29;;;;;;;2.33;1.48;;;8.20;99.40;;;;;;5033171;28;20367;-49
2021/12/09 09:48:57;;;;;;;12.75;1.60;;;8.30;99.60;;;;;;5039561;28;20036;-49
2021/12/09 09:51:27;;;;;;;3.35;1.50;;;8.30;99.80;;;;;;5038234;28;20025;-49
2021/12/09 09:53:53;;;;;;;1.40;1.30;;;8.30;99.60;;;;;;5045758;28;20029;-49
2021/12/09 09:56:23;;;;;;;4.28;1.40;;;8.30;99.60;;;;;;5039572;28;20080;-49
2021/12/09 09:58:52;;;;;;;4.38;1.10;;;8.30;99.60;;;;;;5045290;28;20083;-49
2021/12/09 10:01:19;;;;;;;3.97;1.67;;;8.40;99.60;;;;;;5044048;28;20034;-49
2021/12/09 10:03:47;;;;;;;3.38;1.30;;;8.40;99.60;;;;;;5043088;28;20034;-49
2021/12/09 10:06:15;;;;;;;14.43;2.20;;;8.40;99.50;;;;;;5038762;28;20153;-49
2021/12/09 10:08:42;;;;;;;5.80;1.80;;;8.40;99.70;;;;;;5038382;28;20026;-49
2021/12/09 10:11:08;;;;;;;4.00;1.42;;;8.40;99.90;;;;;;5044981;28;20054;-49
2021/12/09 10:13:37;;;;;;;8.70;2.67;;;8.50;99.90;;;;;;5043517;28;20060;-49
2021/12/09 10:16:14;;;;;;;2.58;1.45;;;8.50;99.90;;;;;;5042656;28;20048;-49
2021/12/09 10:18:43;;;;;;;4.82;1.77;;;8.50;99.90;;;;;;5038453;28;20026;-51
2021/12/09 10:21:12;;;;;;;1.85;1.45;;;8.50;99.40;;;;;;5039942;28;20026;-50
2021/12/09 10:23:51;;;;;;;2.83;1.95;;;8.50;98.40;;;;;;5044669;28;20033;-49
2021/12/09 10:26:30;;;;;;;2.03;1.83;;;8.40;98.30;;;;;;5037717;28;20049;-49
2021/12/09 10:29:15;;;;;;;4.10;1.20;;;8.40;98.30;;;;;;5042635;28;20033;-50
2021/12/09 10:31:45;;;;;;;2.95;1.50;;;8.40;98.20;;;;;;5041544;28;20037;-49
2021/12/09 10:34:36;;;;;;;4.72;1.63;;;8.50;98.70;;;;;;5042212;28;20039;-49
2021/12/09 10:37:04;;;;;;;1.48;1.20;;;8.50;98.60;;;;;;5037454;28;20025;-49
2021/12/09 10:39:38;;;;;;;2.33;1.02;;;8.50;98.70;;;;;;5041944;28;20797;-49
2021/12/09 10:42:11;;;;;;;3.60;1.60;;;8.50;98.90;;;;;;5042799;28;20329;-49
2021/12/09 10:45:00;;;;;;;6.38;1.75;;;8.50;99.00;;;;;;5044418;28;20367;-49
2021/12/09 10:50:31;;;;;;;1.42;1.30;;;8.50;98.90;;;;;;5040764;28;20026;-49
2021/12/09 10:55:56;;;;;;;3.05;1.45;;;8.50;99.20;;;;;;5039010;28;20047;-49
2021/12/09 10:58:25;;;;;;;3.47;1.70;;;8.50;99.10;;;;;;5041886;28;20029;-49
2021/12/09 11:00:57;;;;;;;7.20;3.00;;;8.50;99.60;;;;;;5044352;28;20028;-49
2021/12/09 11:03:29;;;;;;;6.20;1.38;;;8.60;99.80;;;;;;5042244;28;20040;-49
2021/12/09 11:06:13;;;;;;;2.45;1.58;;;8.60;99.70;;;;;;5041229;28;20040;-49
2021/12/09 11:08:50;;;;;;;6.75;1.45;;;8.60;99.90;;;;;;5038038;28;20553;-49
2021/12/09 11:11:33;;;;;;;4.15;1.85;;;8.60;99.90;;;;;;5044631;28;20052;-49
2021/12/09 11:14:08;;;;;;;5.13;1.73;;;8.60;99.90;;;;;;5043553;28;20197;-49
2021/12/09 11:16:49;;;;;;;2.42;1.95;;;8.60;99.90;;;;;;5035675;28;20022;-49
2021/12/09 11:19:31;;;;;;;6.55;1.67;;;8.70;99.90;;;;;;5041867;28;20032;-49
2021/12/09 11:22:07;;;;;;;3.85;1.40;;;8.70;99.90;;;;;;5033902;28;20168;-49
2021/12/09 11:24:36;;;;;;;3.92;1.80;;;8.70;99.90;;;;;;5044565;28;20033;-49
2021/12/09 11:27:04;;;;;;;7.00;2.08;;;8.70;99.90;;;;;;5035430;28;20061;-49
2021/12/09 11:29:46;;;;;;;4.65;1.35;;;8.60;99.90;;;;;;5043025;28;20082;-49
2021/12/09 11:32:28;;;;;;;4.10;1.38;;;8.60;99.90;;;;;;5036851;28;20025;-49
2021/12/09 11:35:15;;;;;;;3.90;1.02;;;8.60;99.90;;;;;;5040787;28;20029;-49
2021/12/09 11:37:50;;;;;;;2.92;1.98;;;8.60;99.90;;;;;;5031912;28;20308;-49
2021/12/09 11:40:18;;;;;;;3.00;2.03;;;8.70;99.90;;;;;;5036824;28;20358;-49
2021/12/09 11:42:49;;;;;;;2.67;1.52;;;8.70;99.90;;;;;;5043186;28;20063;-49
2021/12/09 11:45:18;;;;;;;2.17;1.58;;;8.70;99.90;;;;;;5041323;28;20053;-49
2021/12/09 11:47:45;;;;;;;3.03;2.03;;;8.70;99.90;;;;;;5040310;28;20348;-49
2021/12/09 11:50:14;;;;;;;3.22;1.40;;;8.70;99.90;;;;;;5043324;28;20020;-49
2021/12/09 11:52:43;;;;;;;2.28;1.17;;;8.70;99.90;;;;;;5031973;28;20033;-49
2021/12/09 11:55:12;;;;;;;3.33;1.67;;;8.70;99.90;;;;;;5041664;28;20028;-49
2021/12/09 11:57:49;;;;;;;1.92;0.73;;;8.70;99.90;;;;;;5042435;28;20033;-49
2021/12/09 12:12:48;;;;;;;8.52;1.83;;;8.70;99.90;;;;;;5036776;28;20151;-49
2021/12/09 12:26:44;;;;;;;;;;;8.70;99.90;;;;;;5039434;28;20256;-50
2021/12/09 12:40:16;;;;;;;2.15;1.52;;;8.80;99.90;;;;;;5017964;28;20510;-49
2021/12/09 12:42:56;;;;;;;1.95;1.23;;;8.70;99.90;;;;;;5018069;28;20163;-49
2021/12/09 12:45:35;;;;;;;;;;;8.80;99.90;;;;;;5017089;28;20378;-50
2021/12/09 12:51:16;;;;;;;3.15;1.50;;;8.80;99.90;;;;;;5014404;28;20395;-49
2021/12/09 12:54:06;;;;;;;2.78;1.60;;;8.80;99.90;;;;;;5014783;28;20095;-49
2021/12/09 12:56:43;;;;;;;3.25;1.67;;;8.70;99.90;;;;;;4980683;28;20048;-49
2021/12/09 12:59:12;;;;;;;2.72;1.45;;;8.70;99.90;;;;;;5017190;28;20037;-49
2021/12/09 13:01:50;;;;;;;1.52;1.35;;;8.80;99.90;;;;;;5018107;28;20462;-49
2021/12/09 13:10:25;;;;;;;7.95;1.90;;;8.80;99.90;;;;;;5012854;28;20044;-49
2021/12/09 13:13:13;;;;;;;1.95;1.60;;;8.80;99.90;;;;;;5015122;28;20067;-49
2021/12/09 13:16:08;;;;;;;4.05;1.30;;;8.80;99.90;;;;;;5034146;28;20033;-49
2021/12/09 13:19:32;;;;;;;3.70;1.98;;;8.80;99.80;;;;;;5036177;28;20032;-49
2021/12/09 13:21:37;;;;;;;4.30;1.45;;;8.80;99.80;;;;;;5040304;28;20370;-50
2021/12/09 13:24:23;;;;;;;3.40;1.40;;;8.80;99.70;;;;;;5034275;28;20304;-50
2021/12/09 13:27:06;;;;;;;4.78;1.55;;;8.80;99.60;;;;;;5043123;28;20073;-49
2021/12/09 13:29:46;;;;;;;1.63;1.52;;;8.80;99.70;;;;;;5041390;28;20038;-49
2021/12/09 13:35:17;;;;;;;1.77;1.55;;;8.80;99.60;;;;;;5039931;28;20038;-49
2021/12/09 13:38:31;;;;;;;2.80;1.45;;;8.80;99.60;;;;;;5040934;28;20363;-49
2021/12/09 13:45:54;;;;;;;2.35;1.50;;;8.80;99.60;;;;;;5044480;28;20029;-49
2021/12/09 13:46:32;;;;;;;1.35;1.20;;;8.80;99.60;;;;;;5041641;28;20418;-49
2021/12/09 13:49:23;;;;;;;6.68;2.03;;;8.80;99.60;;;;;;5039120;28;20255;-49
2021/12/09 13:54:28;;;;;;;8.95;2.45;;;8.80;99.50;;;;;;5034079;28;20042;-49
2021/12/09 13:56:57;;;;;;;2.15;1.40;;;8.80;99.60;;;;;;5045348;28;20163;-49
2021/12/09 13:59:25;;;;;;;3.17;1.90;;;8.80;99.50;;;;;;5042948;28;20030;-49
2021/12/09 14:01:54;;;;;;;3.30;2.10;;;8.80;99.40;;;;;;5044607;28;20087;-49
2021/12/09 14:04:22;;;;;;;5.22;1.88;;;8.80;99.40;;;;;;5044444;28;20025;-49
2021/12/09 14:09:35;;;;;;;3.15;1.98;;;8.80;99.50;;;;;;5040497;28;20053;-49
2021/12/09 14:12:03;;;;;;;4.57;2.15;;;8.80;99.50;;;;;;5042606;28;20102;-49
2021/12/09 14:14:41;;;;;;;3.92;1.70;;;8.80;99.40;;;;;;5038489;28;20029;-49